createdAt,value
2018-11-21T00:00:19.074Z,77.58
2018-11-21T00:02:50.698Z,77.81
2018-11-21T00:05:20.763Z,77.72
2018-11-21T00:07:50.785Z,77.85
2018-11-21T00:10:22.062Z,78.15
2018-11-21T00:12:53.883Z,78.23
2018-11-21T00:15:23.994Z,78.42
2018-11-21T00:17:54.031Z,78.48
2018-11-21T00:20:24.125Z,78.72
2018-11-21T00:22:54.131Z,78.75
2018-11-21T00:25:24.164Z,78.66
2018-11-21T00:27:54.219Z,78.76
2018-11-21T00:30:24.306Z,79.87
2018-11-21T00:32:54.441Z,80.47
2018-11-21T00:35:24.573Z,80.72
2018-11-21T00:37:54.730Z,80.71
2018-11-21T00:40:24.724Z,81.27
2018-11-21T00:42:54.843Z,81.10
2018-11-21T00:45:24.830Z,81.36
2018-11-21T00:47:54.946Z,81.65
2018-11-21T00:50:25.055Z,81.87
2018-11-21T00:52:55.104Z,82.46
2018-11-21T00:55:25.095Z,82.18
2018-11-21T00:57:55.096Z,82.43
2018-11-21T01:00:25.251Z,82.17
2018-11-21T01:02:55.357Z,82.20
2018-11-21T01:05:25.393Z,82.59
2018-11-21T01:07:55.553Z,82.61
2018-11-21T01:10:25.640Z,82.56
2018-11-21T01:12:55.814Z,82.25
2018-11-21T01:15:25.833Z,82.27
2018-11-21T01:17:55.974Z,82.48
2018-11-21T01:20:26.136Z,82.14
2018-11-21T01:22:56.173Z,82.10
2018-11-21T01:25:26.224Z,81.77
2018-11-21T01:27:56.263Z,81.56
2018-11-21T01:30:26.345Z,81.36
2018-11-21T01:32:56.374Z,81.36
2018-11-21T01:35:26.348Z,81.03
2018-11-21T01:37:56.472Z,81.09
2018-11-21T01:40:26.567Z,81.17
2018-11-21T01:42:56.726Z,80.97
2018-11-21T01:45:26.973Z,80.83
2018-11-21T01:47:56.991Z,80.63
2018-11-21T01:50:27.039Z,80.75
2018-11-21T01:52:57.153Z,80.46
2018-11-21T01:55:27.301Z,80.39
2018-11-21T01:57:57.333Z,80.56
2018-11-21T02:00:27.502Z,80.34
2018-11-21T02:02:57.588Z,80.44
2018-11-21T02:05:27.469Z,80.58
2018-11-21T02:07:57.567Z,80.46
2018-11-21T02:10:27.703Z,80.40
2018-11-21T02:12:57.887Z,80.36
2018-11-21T02:15:27.864Z,80.21
2018-11-21T02:17:57.815Z,79.85
2018-11-21T02:20:27.843Z,79.66
2018-11-21T02:22:57.720Z,79.48
2018-11-21T02:25:27.865Z,79.28
2018-11-21T02:27:57.841Z,79.40
2018-11-21T02:30:27.876Z,79.26
2018-11-21T02:32:57.895Z,79.10
2018-11-21T02:35:28.043Z,79.57
2018-11-21T02:37:58.191Z,79.57
2018-11-21T02:40:28.127Z,79.91
2018-11-21T02:42:58.283Z,79.65
2018-11-21T02:45:28.378Z,79.87
2018-11-21T02:47:58.544Z,79.87
2018-11-21T02:50:28.661Z,80.17
2018-11-21T02:52:58.807Z,80.00
2018-11-21T02:55:28.967Z,80.16
2018-11-21T02:57:58.960Z,79.97
2018-11-21T03:00:29.388Z,79.83
2018-11-21T03:02:59.468Z,79.74
2018-11-21T03:05:29.593Z,79.92
2018-11-21T03:08:00.661Z,79.80
2018-11-21T03:10:30.764Z,79.74
2018-11-21T03:13:00.852Z,79.84
2018-11-21T03:15:30.934Z,79.81
2018-11-21T03:18:01.126Z,79.75
2018-11-21T03:20:31.114Z,79.70
2018-11-21T03:23:01.250Z,79.73
2018-11-21T03:25:31.289Z,79.86
2018-11-21T03:28:01.304Z,80.00
2018-11-21T03:30:31.266Z,80.23
2018-11-21T03:33:01.382Z,80.02
2018-11-21T03:35:31.439Z,80.18
2018-11-21T03:38:01.651Z,80.08
2018-11-21T03:40:31.633Z,79.85
2018-11-21T03:43:01.751Z,80.07
2018-11-21T03:45:31.737Z,80.39
2018-11-21T03:48:01.693Z,80.54
2018-11-21T03:50:31.845Z,80.26
2018-11-21T03:53:02.054Z,79.91
2018-11-21T03:55:32.152Z,79.98
2018-11-21T03:58:02.232Z,80.18
2018-11-21T04:00:32.285Z,80.20
2018-11-21T04:03:02.312Z,80.33
2018-11-21T04:05:32.336Z,80.37
2018-11-21T04:08:02.347Z,80.12
2018-11-21T04:10:32.293Z,80.04
2018-11-21T04:13:02.420Z,80.13
2018-11-21T04:15:32.477Z,79.93
2018-11-21T04:18:02.344Z,79.77
2018-11-21T04:20:32.404Z,79.42
2018-11-21T04:23:02.315Z,79.44
2018-11-21T04:25:32.352Z,79.13
2018-11-21T04:28:02.345Z,79.61
2018-11-21T04:30:32.322Z,79.63
2018-11-21T04:33:02.471Z,79.88
2018-11-21T04:35:32.481Z,80.09
2018-11-21T04:38:02.586Z,80.05
2018-11-21T04:40:32.595Z,80.49
2018-11-21T04:43:02.475Z,80.68
2018-11-21T04:45:32.591Z,80.84
2018-11-21T04:48:02.712Z,80.77
2018-11-21T04:50:32.780Z,80.71
2018-11-21T04:53:02.768Z,80.39
2018-11-21T04:55:32.818Z,79.89
2018-11-21T04:58:02.799Z,80.02
2018-11-21T05:00:32.772Z,79.95
2018-11-21T05:03:02.914Z,80.06
2018-11-21T05:05:32.842Z,80.52
2018-11-21T05:08:03.031Z,80.44
2018-11-21T05:10:33.124Z,81.05
2018-11-21T05:13:03.092Z,80.95
2018-11-21T05:15:33.185Z,81.28
2018-11-21T05:18:03.215Z,81.76
2018-11-21T05:20:33.285Z,82.05
2018-11-21T05:23:03.372Z,82.10
2018-11-21T05:25:33.321Z,81.63
2018-11-21T05:28:03.368Z,81.47
2018-11-21T05:30:33.450Z,81.24
2018-11-21T05:33:03.526Z,81.11
2018-11-21T05:35:33.661Z,80.91
2018-11-21T05:38:03.712Z,80.99
2018-11-21T05:40:33.831Z,80.72
2018-11-21T05:43:03.998Z,80.40
2018-11-21T05:45:34.119Z,80.27
2018-11-21T05:48:04.143Z,80.12
2018-11-21T05:50:34.177Z,80.33
2018-11-21T05:53:04.317Z,80.50
2018-11-21T05:55:34.435Z,80.81
2018-11-21T05:58:04.424Z,80.90
2018-11-21T06:00:34.551Z,80.84
2018-11-21T06:03:04.677Z,80.81
2018-11-21T06:05:34.706Z,80.22
2018-11-21T06:08:04.833Z,80.45
2018-11-21T06:10:34.959Z,79.99
2018-11-21T06:13:05.215Z,80.03
2018-11-21T06:15:35.224Z,80.02
2018-11-21T06:18:05.393Z,79.59
2018-11-21T06:20:35.411Z,79.59
2018-11-21T06:23:05.438Z,79.59
2018-11-21T06:25:35.597Z,78.94
2018-11-21T06:28:05.713Z,78.98
2018-11-21T06:30:35.779Z,78.96
2018-11-21T06:33:06.191Z,78.22
2018-11-21T06:35:36.319Z,77.94
2018-11-21T06:38:06.466Z,78.10
2018-11-21T06:40:36.597Z,78.10
2018-11-21T06:43:06.719Z,77.69
2018-11-21T06:45:36.875Z,77.32
2018-11-21T06:48:06.901Z,77.32
2018-11-21T06:50:36.932Z,77.23
2018-11-21T06:53:07.666Z,77.19
2018-11-21T06:55:37.663Z,77.31
2018-11-21T06:58:07.757Z,77.51
2018-11-21T07:00:37.900Z,77.41
2018-11-21T07:03:08.043Z,77.43
2018-11-21T07:05:38.041Z,77.32
2018-11-21T07:08:08.108Z,77.79
2018-11-21T07:10:38.118Z,77.89
2018-11-21T07:13:11.174Z,77.78
2018-11-21T07:15:38.191Z,77.75
2018-11-21T07:18:08.220Z,77.52
2018-11-21T07:20:38.401Z,77.66
2018-11-21T07:23:08.541Z,76.97
2018-11-21T07:25:38.664Z,76.75
2018-11-21T07:28:12.951Z,77.16
2018-11-21T07:30:38.827Z,77.16
2018-11-21T07:33:08.949Z,76.77
2018-11-21T07:35:39.184Z,76.77
2018-11-21T07:38:09.243Z,78.22
2018-11-21T07:40:39.244Z,78.22
2018-11-21T07:43:09.314Z,79.12
2018-11-21T07:45:39.298Z,79.12
2018-11-21T07:48:09.239Z,79.29
2018-11-21T07:50:39.315Z,79.43
2018-11-21T07:53:09.335Z,79.38
2018-11-21T07:55:40.466Z,79.79
2018-11-21T07:58:12.576Z,80.21
2018-11-21T08:01:11.357Z,80.36
2018-11-21T08:03:43.431Z,80.89
2018-11-21T08:06:19.195Z,81.07
2018-11-21T08:09:07.018Z,81.20
2018-11-21T08:12:01.729Z,81.45
2018-11-21T08:14:49.262Z,81.72
2018-11-21T08:17:36.806Z,81.86
2018-11-21T08:20:25.511Z,81.86
2018-11-21T08:23:32.671Z,81.92
2018-11-21T08:26:20.677Z,81.92
2018-11-21T08:28:50.677Z,82.33
2018-11-21T08:31:20.713Z,82.87
2018-11-21T08:33:50.779Z,82.77
2018-11-21T08:36:20.785Z,82.92
2018-11-21T08:38:50.838Z,83.06
2018-11-21T08:41:20.902Z,83.46
2018-11-21T08:43:50.991Z,83.38
2018-11-21T08:46:21.146Z,83.81
2018-11-21T08:48:51.139Z,83.49
2018-11-21T08:51:21.187Z,83.53
2018-11-21T08:53:51.179Z,83.34
2018-11-21T08:56:21.298Z,84.10
2018-11-21T08:58:51.244Z,84.79
2018-11-21T09:01:21.286Z,84.27
2018-11-21T09:03:51.234Z,84.53
2018-11-21T09:06:21.344Z,84.67
2018-11-21T09:08:51.392Z,84.69
2018-11-21T09:11:21.417Z,84.26
2018-11-21T09:13:53.247Z,84.39
2018-11-21T09:16:21.423Z,85.09
2018-11-21T09:18:51.395Z,84.49
2018-11-21T09:21:21.331Z,84.47
2018-11-21T09:23:51.384Z,84.20
2018-11-21T09:26:21.412Z,84.39
2018-11-21T09:28:51.587Z,84.52
2018-11-21T09:31:21.683Z,83.94
2018-11-21T09:33:51.832Z,83.71
2018-11-21T09:36:21.972Z,83.33
2018-11-21T09:38:52.046Z,83.43
2018-11-21T09:41:22.068Z,82.72
2018-11-21T09:43:52.062Z,83.38
2018-11-21T09:46:22.228Z,84.43
2018-11-21T09:48:52.122Z,83.48
2018-11-21T09:51:22.169Z,83.44
2018-11-21T09:53:52.195Z,83.19
2018-11-21T09:56:22.247Z,83.38
2018-11-21T09:58:52.261Z,83.28
2018-11-21T10:01:58.933Z,82.87
2018-11-21T10:04:28.966Z,83.07
2018-11-21T10:06:59.106Z,82.47
2018-11-21T10:09:31.797Z,82.53
2018-11-21T10:12:01.839Z,83.54
2018-11-21T10:14:31.985Z,82.62
2018-11-21T10:17:02.118Z,82.00
2018-11-21T10:19:32.278Z,82.58
2018-11-21T10:22:02.465Z,81.73
2018-11-21T10:24:32.610Z,80.86
2018-11-21T10:27:02.647Z,83.50
2018-11-21T10:29:32.775Z,81.77
2018-11-21T10:32:02.939Z,81.15
2018-11-21T10:34:33.058Z,81.47
2018-11-21T10:37:03.105Z,81.58
2018-11-21T10:39:33.102Z,80.86
2018-11-21T10:42:03.104Z,80.74
2018-11-21T10:44:33.083Z,82.23
2018-11-21T10:47:03.140Z,81.65
2018-11-21T10:49:33.215Z,82.55
2018-11-21T10:52:03.306Z,82.06
2018-11-21T10:54:33.429Z,81.56
2018-11-21T10:57:03.460Z,80.45
2018-11-21T10:59:33.552Z,80.05
2018-11-21T11:02:21.562Z,80.75
2018-11-21T11:05:17.900Z,81.21
2018-11-21T11:08:06.985Z,82.28
2018-11-21T11:11:11.307Z,80.17
2018-11-21T11:14:18.816Z,79.74
2018-11-21T11:17:06.339Z,80.52
2018-11-21T11:19:51.768Z,81.29
2018-11-21T11:22:43.736Z,81.09
2018-11-21T11:25:32.844Z,81.69
2018-11-21T11:28:20.151Z,83.03
2018-11-21T11:31:18.364Z,80.71
2018-11-21T11:34:02.779Z,81.02
2018-11-21T11:36:54.490Z,80.71
2018-11-21T11:39:43.621Z,80.90
2018-11-21T11:42:32.675Z,81.50
2018-11-21T11:45:20.745Z,81.55
2018-11-21T11:48:14.140Z,80.18
2018-11-21T11:51:05.921Z,80.01
2018-11-21T11:53:57.928Z,81.41
2018-11-21T11:56:53.167Z,81.34
2018-11-21T11:59:45.320Z,81.03
2018-11-21T12:02:34.488Z,80.22
2018-11-21T12:05:23.623Z,79.89
2018-11-21T12:08:15.459Z,80.12
2018-11-21T12:11:04.453Z,79.79
2018-11-21T12:13:52.063Z,79.38
2018-11-21T12:16:43.806Z,80.99
2018-11-21T20:45:30.061Z,76.19
